ADDS METAR Data INFO
IDs: Format: Raw Decoded Include TAF

Data at: 0131 UTC 23 Nov 2017

KPNS 230053Z 35012KT 10SM CLR 15/06 A3006 RMK AO2 SLP183 T01500061

KPNS 222320Z 2300/2324 36010KT P6SM BKN120 OVC250
  FM231200 36010KT P6SM SCT250